sensor_id;sensor_type;location;lat;lon;timestamp;temperature;humidity
516;DHT22;244;48.508;9.052;2023-11-22T00:01:11;10.40;28.50
516;DHT22;244;48.508;9.052;2023-11-22T00:03:38;10.40;28.60
516;DHT22;244;48.508;9.052;2023-11-22T00:06:07;10.30;28.30
516;DHT22;244;48.508;9.052;2023-11-22T00:08:34;10.30;28.30
516;DHT22;244;48.508;9.052;2023-11-22T00:11:01;10.30;28.50
516;DHT22;244;48.508;9.052;2023-11-22T00:13:30;10.30;28.60
516;DHT22;244;48.508;9.052;2023-11-22T00:15:58;10.30;28.70
516;DHT22;244;48.508;9.052;2023-11-22T00:18:26;10.30;29.30
516;DHT22;244;48.508;9.052;2023-11-22T00:20:53;10.30;28.60
516;DHT22;244;48.508;9.052;2023-11-22T00:23:21;10.30;28.70
516;DHT22;244;48.508;9.052;2023-11-22T00:25:52;10.30;28.80
516;DHT22;244;48.508;9.052;2023-11-22T00:28:19;10.30;28.70
516;DHT22;244;48.508;9.052;2023-11-22T00:30:46;10.30;28.80
516;DHT22;244;48.508;9.052;2023-11-22T00:33:14;10.30;28.80
516;DHT22;244;48.508;9.052;2023-11-22T00:35:41;10.30;28.80
516;DHT22;244;48.508;9.052;2023-11-22T00:38:07;10.30;28.80
516;DHT22;244;48.508;9.052;2023-11-22T00:40:36;10.30;28.80
516;DHT22;244;48.508;9.052;2023-11-22T00:43:03;10.30;28.80
516;DHT22;244;48.508;9.052;2023-11-22T00:45:30;10.30;28.80
516;DHT22;244;48.508;9.052;2023-11-22T00:47:57;10.30;28.70
516;DHT22;244;48.508;9.052;2023-11-22T00:50:24;10.30;28.70
516;DHT22;244;48.508;9.052;2023-11-22T00:52:51;10.40;28.70
516;DHT22;244;48.508;9.052;2023-11-22T00:55:19;10.30;28.60
516;DHT22;244;48.508;9.052;2023-11-22T00:57:47;10.30;28.50
516;DHT22;244;48.508;9.052;2023-11-22T01:00:15;10.30;28.60
516;DHT22;244;48.508;9.052;2023-11-22T01:02:42;10.30;28.60
516;DHT22;244;48.508;9.052;2023-11-22T01:05:09;10.30;28.70
516;DHT22;244;48.508;9.052;2023-11-22T01:07:37;10.30;28.50
516;DHT22;244;48.508;9.052;2023-11-22T01:10:04;10.30;28.60
516;DHT22;244;48.508;9.052;2023-11-22T01:12:32;10.30;28.60
516;DHT22;244;48.508;9.052;2023-11-22T01:15:00;10.30;28.60
516;DHT22;244;48.508;9.052;2023-11-22T01:17:27;10.30;28.70
516;DHT22;244;48.508;9.052;2023-11-22T01:19:54;10.30;28.60
516;DHT22;244;48.508;9.052;2023-11-22T01:22:21;10.30;28.70
516;DHT22;244;48.508;9.052;2023-11-22T01:24:48;10.30;28.50
516;DHT22;244;48.508;9.052;2023-11-22T01:27:15;10.20;27.90
516;DHT22;244;48.508;9.052;2023-11-22T01:29:42;10.10;27.10
516;DHT22;244;48.508;9.052;2023-11-22T01:32:10;9.90;26.80
516;DHT22;244;48.508;9.052;2023-11-22T01:34:38;9.70;26.60
516;DHT22;244;48.508;9.052;2023-11-22T01:37:05;9.60;26.70
516;DHT22;244;48.508;9.052;2023-11-22T01:39:32;9.40;26.10
516;DHT22;244;48.508;9.052;2023-11-22T01:41:59;9.20;26.00
516;DHT22;244;48.508;9.052;2023-11-22T01:44:26;9.10;26.10
516;DHT22;244;48.508;9.052;2023-11-22T01:46:53;9.00;26.10
516;DHT22;244;48.508;9.052;2023-11-22T01:49:22;8.90;26.30
516;DHT22;244;48.508;9.052;2023-11-22T01:51:50;8.80;26.40
516;DHT22;244;48.508;9.052;2023-11-22T01:54:18;8.70;26.60
516;DHT22;244;48.508;9.052;2023-11-22T01:56:46;8.60;26.60
516;DHT22;244;48.508;9.052;2023-11-22T01:59:13;8.50;26.80
516;DHT22;244;48.508;9.052;2023-11-22T02:01:42;8.40;27.10
516;DHT22;244;48.508;9.052;2023-11-22T02:04:09;8.40;27.50
516;DHT22;244;48.508;9.052;2023-11-22T02:06:40;8.30;27.40
516;DHT22;244;48.508;9.052;2023-11-22T02:09:07;8.20;27.30
516;DHT22;244;48.508;9.052;2023-11-22T02:11:39;8.10;27.30
516;DHT22;244;48.508;9.052;2023-11-22T02:14:07;8.10;27.10
516;DHT22;244;48.508;9.052;2023-11-22T02:16:35;8.00;26.80
516;DHT22;244;48.508;9.052;2023-11-22T02:19:02;7.90;26.90
516;DHT22;244;48.508;9.052;2023-11-22T02:21:30;7.80;27.00
516;DHT22;244;48.508;9.052;2023-11-22T02:23:59;7.80;26.90
516;DHT22;244;48.508;9.052;2023-11-22T02:26:26;7.70;26.80
516;DHT22;244;48.508;9.052;2023-11-22T02:28:53;7.70;26.70
516;DHT22;244;48.508;9.052;2023-11-22T02:31:19;7.60;26.90
516;DHT22;244;48.508;9.052;2023-11-22T02:33:46;7.60;26.90
516;DHT22;244;48.508;9.052;2023-11-22T02:36:14;7.50;26.90
516;DHT22;244;48.508;9.052;2023-11-22T02:38:40;7.50;27.00
516;DHT22;244;48.508;9.052;2023-11-22T02:41:09;7.50;27.00
516;DHT22;244;48.508;9.052;2023-11-22T02:43:35;7.50;27.10
516;DHT22;244;48.508;9.052;2023-11-22T02:46:02;7.50;27.20
516;DHT22;244;48.508;9.052;2023-11-22T02:48:29;7.50;26.90
516;DHT22;244;48.508;9.052;2023-11-22T02:50:56;7.50;26.90
516;DHT22;244;48.508;9.052;2023-11-22T02:53:23;7.50;26.90
516;DHT22;244;48.508;9.052;2023-11-22T02:55:50;7.50;26.90
516;DHT22;244;48.508;9.052;2023-11-22T02:58:18;7.40;26.50
516;DHT22;244;48.508;9.052;2023-11-22T03:00:45;7.40;26.30
516;DHT22;244;48.508;9.052;2023-11-22T03:03:13;7.40;26.20
516;DHT22;244;48.508;9.052;2023-11-22T03:05:40;7.30;25.80
516;DHT22;244;48.508;9.052;2023-11-22T03:08:07;7.30;25.70
516;DHT22;244;48.508;9.052;2023-11-22T03:10:35;7.20;25.60
516;DHT22;244;48.508;9.052;2023-11-22T03:13:02;7.20;25.60
516;DHT22;244;48.508;9.052;2023-11-22T03:15:31;7.20;26.30
516;DHT22;244;48.508;9.052;2023-11-22T03:17:58;7.10;25.70
516;DHT22;244;48.508;9.052;2023-11-22T03:20:25;7.10;25.70
516;DHT22;244;48.508;9.052;2023-11-22T03:22:52;7.00;25.60
516;DHT22;244;48.508;9.052;2023-11-22T03:25:19;7.00;25.00
516;DHT22;244;48.508;9.052;2023-11-22T03:27:46;6.90;24.90
516;DHT22;244;48.508;9.052;2023-11-22T03:30:13;6.90;24.90
516;DHT22;244;48.508;9.052;2023-11-22T03:32:42;6.80;24.70
516;DHT22;244;48.508;9.052;2023-11-22T03:35:09;6.80;24.80
516;DHT22;244;48.508;9.052;2023-11-22T03:37:37;6.70;24.90
516;DHT22;244;48.508;9.052;2023-11-22T03:40:05;6.60;24.50
516;DHT22;244;48.508;9.052;2023-11-22T03:42:33;6.60;24.20
516;DHT22;244;48.508;9.052;2023-11-22T03:45:00;6.50;24.10
516;DHT22;244;48.508;9.052;2023-11-22T03:47:26;6.40;23.80
516;DHT22;244;48.508;9.052;2023-11-22T03:49:55;6.30;23.90
516;DHT22;244;48.508;9.052;2023-11-22T03:52:22;6.20;23.90
516;DHT22;244;48.508;9.052;2023-11-22T03:54:49;6.20;23.80
516;DHT22;244;48.508;9.052;2023-11-22T03:57:16;6.10;23.70
516;DHT22;244;48.508;9.052;2023-11-22T03:59:43;6.00;23.90
516;DHT22;244;48.508;9.052;2023-11-22T04:02:10;6.00;24.20
516;DHT22;244;48.508;9.052;2023-11-22T04:04:37;6.00;24.30
516;DHT22;244;48.508;9.052;2023-11-22T04:07:06;6.00;24.40
516;DHT22;244;48.508;9.052;2023-11-22T04:09:34;6.00;24.20
516;DHT22;244;48.508;9.052;2023-11-22T04:12:01;6.00;24.00
516;DHT22;244;48.508;9.052;2023-11-22T04:14:29;6.00;24.20
516;DHT22;244;48.508;9.052;2023-11-22T04:16:56;6.00;24.40
516;DHT22;244;48.508;9.052;2023-11-22T04:19:23;6.00;24.40
516;DHT22;244;48.508;9.052;2023-11-22T04:21:50;6.00;24.30
516;DHT22;244;48.508;9.052;2023-11-22T04:24:18;6.00;24.20
516;DHT22;244;48.508;9.052;2023-11-22T04:26:45;5.90;23.90
516;DHT22;244;48.508;9.052;2023-11-22T04:29:12;5.90;24.00
516;DHT22;244;48.508;9.052;2023-11-22T04:31:39;5.80;23.80
516;DHT22;244;48.508;9.052;2023-11-22T04:34:06;5.80;24.10
516;DHT22;244;48.508;9.052;2023-11-22T04:36:33;5.80;24.40
516;DHT22;244;48.508;9.052;2023-11-22T04:39:00;5.90;24.80
516;DHT22;244;48.508;9.052;2023-11-22T04:41:28;5.90;24.80
516;DHT22;244;48.508;9.052;2023-11-22T04:43:55;5.90;24.80
516;DHT22;244;48.508;9.052;2023-11-22T04:46:22;5.90;24.70
516;DHT22;244;48.508;9.052;2023-11-22T04:48:49;6.00;25.00
516;DHT22;244;48.508;9.052;2023-11-22T04:51:17;6.00;24.90
516;DHT22;244;48.508;9.052;2023-11-22T04:53:44;6.00;24.70
516;DHT22;244;48.508;9.052;2023-11-22T04:56:11;6.00;24.70
516;DHT22;244;48.508;9.052;2023-11-22T04:58:40;6.00;24.90
516;DHT22;244;48.508;9.052;2023-11-22T05:01:07;6.00;24.80
516;DHT22;244;48.508;9.052;2023-11-22T05:03:35;6.10;25.10
516;DHT22;244;48.508;9.052;2023-11-22T05:06:03;6.10;25.10
516;DHT22;244;48.508;9.052;2023-11-22T05:08:30;6.10;25.10
516;DHT22;244;48.508;9.052;2023-11-22T05:10:57;6.20;25.10
516;DHT22;244;48.508;9.052;2023-11-22T05:13:24;6.20;24.80
516;DHT22;244;48.508;9.052;2023-11-22T05:15:52;6.20;24.60
516;DHT22;244;48.508;9.052;2023-11-22T05:18:20;6.10;24.00
516;DHT22;244;48.508;9.052;2023-11-22T05:20:47;6.10;23.90
516;DHT22;244;48.508;9.052;2023-11-22T05:23:15;6.10;24.10
516;DHT22;244;48.508;9.052;2023-11-22T05:25:42;6.10;23.60
516;DHT22;244;48.508;9.052;2023-11-22T05:28:09;6.10;23.50
516;DHT22;244;48.508;9.052;2023-11-22T05:30:36;6.10;23.60
516;DHT22;244;48.508;9.052;2023-11-22T05:33:04;6.10;23.70
516;DHT22;244;48.508;9.052;2023-11-22T05:35:32;6.10;23.80
516;DHT22;244;48.508;9.052;2023-11-22T05:37:58;6.10;23.40
516;DHT22;244;48.508;9.052;2023-11-22T05:40:25;6.00;23.10
516;DHT22;244;48.508;9.052;2023-11-22T05:42:52;6.10;23.10
516;DHT22;244;48.508;9.052;2023-11-22T05:45:19;6.00;22.70
516;DHT22;244;48.508;9.052;2023-11-22T05:47:46;6.00;22.50
516;DHT22;244;48.508;9.052;2023-11-22T05:50:16;6.00;22.70
516;DHT22;244;48.508;9.052;2023-11-22T05:52:42;6.00;22.90
516;DHT22;244;48.508;9.052;2023-11-22T05:55:10;6.00;22.60
516;DHT22;244;48.508;9.052;2023-11-22T05:57:39;6.00;22.80
516;DHT22;244;48.508;9.052;2023-11-22T06:00:07;6.00;22.70
516;DHT22;244;48.508;9.052;2023-11-22T06:02:34;6.00;22.50
516;DHT22;244;48.508;9.052;2023-11-22T06:05:02;6.00;22.10
516;DHT22;244;48.508;9.052;2023-11-22T06:07:31;6.00;22.30
516;DHT22;244;48.508;9.052;2023-11-22T06:09:57;6.00;22.30
516;DHT22;244;48.508;9.052;2023-11-22T06:12:25;5.90;21.70
516;DHT22;244;48.508;9.052;2023-11-22T06:14:52;5.90;21.70
516;DHT22;244;48.508;9.052;2023-11-22T06:17:19;5.90;21.70
516;DHT22;244;48.508;9.052;2023-11-22T06:19:46;5.90;21.70
516;DHT22;244;48.508;9.052;2023-11-22T06:22:13;5.90;22.20
516;DHT22;244;48.508;9.052;2023-11-22T06:24:43;5.80;21.20
516;DHT22;244;48.508;9.052;2023-11-22T06:27:13;5.80;21.10
516;DHT22;244;48.508;9.052;2023-11-22T06:29:40;5.80;21.30
516;DHT22;244;48.508;9.052;2023-11-22T06:32:09;5.80;21.60
516;DHT22;244;48.508;9.052;2023-11-22T06:34:36;5.80;21.10
516;DHT22;244;48.508;9.052;2023-11-22T06:37:04;5.70;20.90
516;DHT22;244;48.508;9.052;2023-11-22T06:39:34;5.70;21.10
516;DHT22;244;48.508;9.052;2023-11-22T06:42:02;5.80;20.90
516;DHT22;244;48.508;9.052;2023-11-22T06:44:29;5.70;20.80
516;DHT22;244;48.508;9.052;2023-11-22T06:46:56;5.70;20.70
516;DHT22;244;48.508;9.052;2023-11-22T06:49:24;5.70;20.20
516;DHT22;244;48.508;9.052;2023-11-22T06:51:51;5.70;20.20
516;DHT22;244;48.508;9.052;2023-11-22T06:54:19;5.80;20.60
516;DHT22;244;48.508;9.052;2023-11-22T06:56:46;5.80;20.40
516;DHT22;244;48.508;9.052;2023-11-22T06:59:15;5.80;20.70
516;DHT22;244;48.508;9.052;2023-11-22T07:01:42;5.80;20.80
516;DHT22;244;48.508;9.052;2023-11-22T07:04:09;5.80;20.70
516;DHT22;244;48.508;9.052;2023-11-22T07:06:36;5.80;20.30
516;DHT22;244;48.508;9.052;2023-11-22T07:09:04;5.80;20.00
516;DHT22;244;48.508;9.052;2023-11-22T07:11:31;5.80;20.00
516;DHT22;244;48.508;9.052;2023-11-22T07:13:58;5.80;19.80
516;DHT22;244;48.508;9.052;2023-11-22T07:16:26;5.80;19.70
516;DHT22;244;48.508;9.052;2023-11-22T07:18:54;5.80;19.70
516;DHT22;244;48.508;9.052;2023-11-22T07:21:21;5.80;19.40
516;DHT22;244;48.508;9.052;2023-11-22T07:23:48;5.80;19.40
516;DHT22;244;48.508;9.052;2023-11-22T07:26:15;5.70;19.20
516;DHT22;244;48.508;9.052;2023-11-22T07:28:42;5.70;19.30
516;DHT22;244;48.508;9.052;2023-11-22T07:31:10;5.70;19.40
516;DHT22;244;48.508;9.052;2023-11-22T07:33:38;5.80;19.70
516;DHT22;244;48.508;9.052;2023-11-22T07:36:05;5.80;19.80
516;DHT22;244;48.508;9.052;2023-11-22T07:38:33;5.80;19.60
516;DHT22;244;48.508;9.052;2023-11-22T07:41:00;5.80;19.60
516;DHT22;244;48.508;9.052;2023-11-22T07:43:27;5.80;19.70
516;DHT22;244;48.508;9.052;2023-11-22T07:45:54;5.80;19.60
516;DHT22;244;48.508;9.052;2023-11-22T07:48:21;5.80;19.20
516;DHT22;244;48.508;9.052;2023-11-22T07:50:49;5.80;19.40
516;DHT22;244;48.508;9.052;2023-11-22T07:53:18;5.90;19.40
516;DHT22;244;48.508;9.052;2023-11-22T07:55:45;5.80;19.00
516;DHT22;244;48.508;9.052;2023-11-22T07:58:12;5.80;19.00
516;DHT22;244;48.508;9.052;2023-11-22T08:00:40;5.80;19.20
516;DHT22;244;48.508;9.052;2023-11-22T08:03:08;5.80;19.40
516;DHT22;244;48.508;9.052;2023-11-22T08:05:35;5.90;19.70
516;DHT22;244;48.508;9.052;2023-11-22T08:08:07;5.90;19.80
516;DHT22;244;48.508;9.052;2023-11-22T08:10:34;5.90;20.00
516;DHT22;244;48.508;9.052;2023-11-22T08:13:01;6.00;19.80
516;DHT22;244;48.508;9.052;2023-11-22T08:15:29;6.00;19.70
516;DHT22;244;48.508;9.052;2023-11-22T08:17:57;6.00;19.50
516;DHT22;244;48.508;9.052;2023-11-22T08:20:26;5.90;19.40
516;DHT22;244;48.508;9.052;2023-11-22T08:22:52;5.90;19.50
516;DHT22;244;48.508;9.052;2023-11-22T08:25:21;5.90;19.40
516;DHT22;244;48.508;9.052;2023-11-22T08:27:48;5.90;19.40
516;DHT22;244;48.508;9.052;2023-11-22T08:30:16;5.90;19.60
516;DHT22;244;48.508;9.052;2023-11-22T08:32:43;5.90;19.70
516;DHT22;244;48.508;9.052;2023-11-22T08:35:14;5.90;19.90
516;DHT22;244;48.508;9.052;2023-11-22T08:37:41;6.00;20.10
516;DHT22;244;48.508;9.052;2023-11-22T08:40:09;6.00;20.00
516;DHT22;244;48.508;9.052;2023-11-22T08:42:41;6.00;19.90
516;DHT22;244;48.508;9.052;2023-11-22T08:45:09;6.00;20.00
516;DHT22;244;48.508;9.052;2023-11-22T08:47:37;6.00;20.20
516;DHT22;244;48.508;9.052;2023-11-22T08:50:06;6.00;20.10
516;DHT22;244;48.508;9.052;2023-11-22T08:52:33;6.10;20.20
516;DHT22;244;48.508;9.052;2023-11-22T08:55:02;6.10;20.80
516;DHT22;244;48.508;9.052;2023-11-22T08:57:29;6.10;19.90
516;DHT22;244;48.508;9.052;2023-11-22T08:59:58;6.00;19.40
516;DHT22;244;48.508;9.052;2023-11-22T09:02:31;6.00;19.30
516;DHT22;244;48.508;9.052;2023-11-22T09:04:58;6.00;19.50
516;DHT22;244;48.508;9.052;2023-11-22T09:07:25;5.90;19.40
516;DHT22;244;48.508;9.052;2023-11-22T09:09:53;5.90;19.10
516;DHT22;244;48.508;9.052;2023-11-22T09:12:20;5.80;18.30
516;DHT22;244;48.508;9.052;2023-11-22T09:14:46;5.80;18.40
516;DHT22;244;48.508;9.052;2023-11-22T09:17:14;5.70;18.40
516;DHT22;244;48.508;9.052;2023-11-22T09:19:42;5.70;18.40
516;DHT22;244;48.508;9.052;2023-11-22T09:22:08;5.70;18.50
516;DHT22;244;48.508;9.052;2023-11-22T09:24:36;5.60;18.50
516;DHT22;244;48.508;9.052;2023-11-22T09:27:04;5.60;18.50
516;DHT22;244;48.508;9.052;2023-11-22T09:29:31;5.60;18.70
516;DHT22;244;48.508;9.052;2023-11-22T09:31:59;5.60;18.70
516;DHT22;244;48.508;9.052;2023-11-22T09:34:28;5.60;18.60
516;DHT22;244;48.508;9.052;2023-11-22T09:36:56;5.50;18.40
516;DHT22;244;48.508;9.052;2023-11-22T09:39:24;5.50;18.50
516;DHT22;244;48.508;9.052;2023-11-22T09:41:51;5.50;18.40
516;DHT22;244;48.508;9.052;2023-11-22T09:44:19;5.50;18.40
516;DHT22;244;48.508;9.052;2023-11-22T09:46:48;5.60;18.60
516;DHT22;244;48.508;9.052;2023-11-22T09:49:20;5.60;18.60
516;DHT22;244;48.508;9.052;2023-11-22T09:51:51;5.70;18.80
516;DHT22;244;48.508;9.052;2023-11-22T09:54:23;5.70;18.90
516;DHT22;244;48.508;9.052;2023-11-22T09:56:57;5.80;18.90
516;DHT22;244;48.508;9.052;2023-11-22T09:59:27;5.80;18.90
516;DHT22;244;48.508;9.052;2023-11-22T10:01:55;5.80;18.80
516;DHT22;244;48.508;9.052;2023-11-22T10:04:25;5.90;18.90
516;DHT22;244;48.508;9.052;2023-11-22T10:06:56;5.90;18.80
516;DHT22;244;48.508;9.052;2023-11-22T10:09:24;5.90;18.70
516;DHT22;244;48.508;9.052;2023-11-22T10:11:53;6.00;18.80
516;DHT22;244;48.508;9.052;2023-11-22T10:14:23;6.00;18.70
516;DHT22;244;48.508;9.052;2023-11-22T10:16:58;6.00;18.60
516;DHT22;244;48.508;9.052;2023-11-22T10:19:26;6.00;18.60
516;DHT22;244;48.508;9.052;2023-11-22T10:22:05;6.00;18.50
516;DHT22;244;48.508;9.052;2023-11-22T10:24:32;6.00;18.60
516;DHT22;244;48.508;9.052;2023-11-22T10:27:00;6.00;18.50
516;DHT22;244;48.508;9.052;2023-11-22T10:29:27;6.00;18.60
516;DHT22;244;48.508;9.052;2023-11-22T10:31:54;6.10;18.40
516;DHT22;244;48.508;9.052;2023-11-22T10:34:23;6.10;18.40
516;DHT22;244;48.508;9.052;2023-11-22T10:36:51;6.10;18.30
516;DHT22;244;48.508;9.052;2023-11-22T10:39:20;6.10;18.20
516;DHT22;244;48.508;9.052;2023-11-22T10:41:48;6.20;18.40
516;DHT22;244;48.508;9.052;2023-11-22T10:44:20;6.20;18.40
516;DHT22;244;48.508;9.052;2023-11-22T10:46:48;6.30;18.10
516;DHT22;244;48.508;9.052;2023-11-22T10:49:18;6.20;17.80
516;DHT22;244;48.508;9.052;2023-11-22T10:51:49;6.30;18.00
516;DHT22;244;48.508;9.052;2023-11-22T10:54:20;6.30;17.60
516;DHT22;244;48.508;9.052;2023-11-22T10:56:54;6.30;17.60
516;DHT22;244;48.508;9.052;2023-11-22T10:59:22;6.40;17.70
516;DHT22;244;48.508;9.052;2023-11-22T11:01:56;6.40;17.60
516;DHT22;244;48.508;9.052;2023-11-22T11:04:34;6.40;17.70
516;DHT22;244;48.508;9.052;2023-11-22T11:07:03;6.40;17.70
516;DHT22;244;48.508;9.052;2023-11-22T11:09:33;6.50;17.80
516;DHT22;244;48.508;9.052;2023-11-22T11:12:01;6.60;17.80
516;DHT22;244;48.508;9.052;2023-11-22T11:14:29;6.70;17.60
516;DHT22;244;48.508;9.052;2023-11-22T11:16:56;6.80;17.50
516;DHT22;244;48.508;9.052;2023-11-22T11:19:24;6.90;17.20
516;DHT22;244;48.508;9.052;2023-11-22T11:21:54;6.90;17.10
516;DHT22;244;48.508;9.052;2023-11-22T11:24:22;6.80;16.50
516;DHT22;244;48.508;9.052;2023-11-22T11:26:51;6.80;16.60
516;DHT22;244;48.508;9.052;2023-11-22T11:29:31;6.80;16.60
516;DHT22;244;48.508;9.052;2023-11-22T11:31:58;6.70;16.60
516;DHT22;244;48.508;9.052;2023-11-22T11:34:26;6.70;16.80
516;DHT22;244;48.508;9.052;2023-11-22T11:36:55;6.80;17.00
516;DHT22;244;48.508;9.052;2023-11-22T11:39:25;6.80;17.00
516;DHT22;244;48.508;9.052;2023-11-22T11:42:09;6.80;16.90
516;DHT22;244;48.508;9.052;2023-11-22T11:44:36;6.80;16.80
516;DHT22;244;48.508;9.052;2023-11-22T11:47:13;6.80;16.80
516;DHT22;244;48.508;9.052;2023-11-22T11:49:40;6.80;16.90
516;DHT22;244;48.508;9.052;2023-11-22T11:52:07;6.70;16.60
516;DHT22;244;48.508;9.052;2023-11-22T11:54:35;6.80;16.70
516;DHT22;244;48.508;9.052;2023-11-22T11:57:02;6.80;16.40
516;DHT22;244;48.508;9.052;2023-11-22T11:59:31;6.70;16.10
516;DHT22;244;48.508;9.052;2023-11-22T12:01:59;6.70;15.90
516;DHT22;244;48.508;9.052;2023-11-22T12:04:26;6.60;16.10
516;DHT22;244;48.508;9.052;2023-11-22T12:06:53;6.50;16.20
516;DHT22;244;48.508;9.052;2023-11-22T12:09:23;6.40;16.20
516;DHT22;244;48.508;9.052;2023-11-22T12:11:51;6.30;16.30
516;DHT22;244;48.508;9.052;2023-11-22T12:14:19;6.30;16.50
516;DHT22;244;48.508;9.052;2023-11-22T12:16:47;6.30;16.50
516;DHT22;244;48.508;9.052;2023-11-22T12:19:23;6.20;16.40
516;DHT22;244;48.508;9.052;2023-11-22T12:21:50;6.20;16.60
516;DHT22;244;48.508;9.052;2023-11-22T12:24:17;6.10;16.50
516;DHT22;244;48.508;9.052;2023-11-22T12:26:45;6.10;16.60
516;DHT22;244;48.508;9.052;2023-11-22T12:29:14;6.10;16.70
516;DHT22;244;48.508;9.052;2023-11-22T12:31:47;6.00;16.70
516;DHT22;244;48.508;9.052;2023-11-22T12:34:16;6.00;16.70
516;DHT22;244;48.508;9.052;2023-11-22T12:36:45;6.00;16.90
516;DHT22;244;48.508;9.052;2023-11-22T12:39:14;6.00;16.90
516;DHT22;244;48.508;9.052;2023-11-22T12:41:43;6.00;16.90
516;DHT22;244;48.508;9.052;2023-11-22T12:44:11;6.00;16.90
516;DHT22;244;48.508;9.052;2023-11-22T12:46:47;6.00;16.80
516;DHT22;244;48.508;9.052;2023-11-22T12:49:15;6.00;16.70
516;DHT22;244;48.508;9.052;2023-11-22T12:51:51;6.00;16.80
516;DHT22;244;48.508;9.052;2023-11-22T12:54:18;6.00;16.70
516;DHT22;244;48.508;9.052;2023-11-22T12:56:48;6.00;16.50
516;DHT22;244;48.508;9.052;2023-11-22T12:59:16;6.00;16.40
516;DHT22;244;48.508;9.052;2023-11-22T13:01:44;6.00;16.30
516;DHT22;244;48.508;9.052;2023-11-22T13:04:12;6.00;16.40
516;DHT22;244;48.508;9.052;2023-11-22T13:06:40;6.00;16.50
516;DHT22;244;48.508;9.052;2023-11-22T13:09:07;6.00;16.50
516;DHT22;244;48.508;9.052;2023-11-22T13:11:40;6.00;16.50
516;DHT22;244;48.508;9.052;2023-11-22T13:14:07;6.00;16.50
516;DHT22;244;48.508;9.052;2023-11-22T13:16:34;6.00;16.50
516;DHT22;244;48.508;9.052;2023-11-22T13:19:04;6.00;16.50
516;DHT22;244;48.508;9.052;2023-11-22T13:21:32;6.00;16.50
516;DHT22;244;48.508;9.052;2023-11-22T13:23:59;6.00;16.10
516;DHT22;244;48.508;9.052;2023-11-22T13:26:26;6.00;16.00
516;DHT22;244;48.508;9.052;2023-11-22T13:28:53;6.00;16.20
516;DHT22;244;48.508;9.052;2023-11-22T13:31:21;5.90;16.10
516;DHT22;244;48.508;9.052;2023-11-22T13:33:48;6.00;16.20
516;DHT22;244;48.508;9.052;2023-11-22T13:36:16;6.00;16.20
516;DHT22;244;48.508;9.052;2023-11-22T13:38:44;6.00;16.20
516;DHT22;244;48.508;9.052;2023-11-22T13:41:11;6.00;16.20
516;DHT22;244;48.508;9.052;2023-11-22T13:43:41;5.90;15.90
516;DHT22;244;48.508;9.052;2023-11-22T13:46:08;5.90;16.10
516;DHT22;244;48.508;9.052;2023-11-22T13:48:36;5.90;16.10
516;DHT22;244;48.508;9.052;2023-11-22T13:51:03;5.90;16.10
516;DHT22;244;48.508;9.052;2023-11-22T13:53:30;5.90;16.10
516;DHT22;244;48.508;9.052;2023-11-22T13:56:01;5.90;16.10
516;DHT22;244;48.508;9.052;2023-11-22T13:58:33;5.90;16.00
516;DHT22;244;48.508;9.052;2023-11-22T14:01:01;5.90;15.90
516;DHT22;244;48.508;9.052;2023-11-22T14:03:31;5.90;15.80
516;DHT22;244;48.508;9.052;2023-11-22T14:05:58;5.90;15.90
516;DHT22;244;48.508;9.052;2023-11-22T14:08:26;5.90;16.00
516;DHT22;244;48.508;9.052;2023-11-22T14:10:53;6.00;15.90
516;DHT22;244;48.508;9.052;2023-11-22T14:13:21;6.00;15.70
516;DHT22;244;48.508;9.052;2023-11-22T14:15:48;6.00;15.60
516;DHT22;244;48.508;9.052;2023-11-22T14:18:15;6.00;15.50
516;DHT22;244;48.508;9.052;2023-11-22T14:20:42;5.90;15.20
516;DHT22;244;48.508;9.052;2023-11-22T14:23:09;5.80;15.30
516;DHT22;244;48.508;9.052;2023-11-22T14:25:36;5.80;15.30
516;DHT22;244;48.508;9.052;2023-11-22T14:28:03;5.80;15.30
516;DHT22;244;48.508;9.052;2023-11-22T14:30:32;5.80;15.30
516;DHT22;244;48.508;9.052;2023-11-22T14:33:02;5.80;15.30
516;DHT22;244;48.508;9.052;2023-11-22T14:35:32;5.80;15.30
516;DHT22;244;48.508;9.052;2023-11-22T14:38:00;5.70;15.00
516;DHT22;244;48.508;9.052;2023-11-22T14:40:28;5.60;15.10
516;DHT22;244;48.508;9.052;2023-11-22T14:42:56;5.60;15.20
516;DHT22;244;48.508;9.052;2023-11-22T14:45:23;5.60;15.30
516;DHT22;244;48.508;9.052;2023-11-22T14:47:53;5.60;15.30
516;DHT22;244;48.508;9.052;2023-11-22T14:50:21;5.60;15.40
516;DHT22;244;48.508;9.052;2023-11-22T14:52:51;5.70;15.50
516;DHT22;244;48.508;9.052;2023-11-22T14:55:18;5.70;15.50
516;DHT22;244;48.508;9.052;2023-11-22T14:57:46;5.70;15.50
516;DHT22;244;48.508;9.052;2023-11-22T15:00:14;5.70;15.60
516;DHT22;244;48.508;9.052;2023-11-22T15:02:42;5.70;15.70
516;DHT22;244;48.508;9.052;2023-11-22T15:05:11;5.70;15.70
516;DHT22;244;48.508;9.052;2023-11-22T15:07:38;5.70;15.60
516;DHT22;244;48.508;9.052;2023-11-22T15:10:07;5.70;15.70
516;DHT22;244;48.508;9.052;2023-11-22T15:12:35;5.80;15.70
516;DHT22;244;48.508;9.052;2023-11-22T15:15:02;5.80;15.70
516;DHT22;244;48.508;9.052;2023-11-22T15:17:29;5.80;15.60
516;DHT22;244;48.508;9.052;2023-11-22T15:19:57;5.80;15.50
516;DHT22;244;48.508;9.052;2023-11-22T15:22:25;5.80;15.80
516;DHT22;244;48.508;9.052;2023-11-22T15:24:52;5.80;15.80
516;DHT22;244;48.508;9.052;2023-11-22T15:27:19;5.80;14.80
516;DHT22;244;48.508;9.052;2023-11-22T15:29:46;5.70;14.90
516;DHT22;244;48.508;9.052;2023-11-22T15:32:13;5.70;14.80
516;DHT22;244;48.508;9.052;2023-11-22T15:34:40;5.70;14.70
516;DHT22;244;48.508;9.052;2023-11-22T15:37:07;5.70;14.80
516;DHT22;244;48.508;9.052;2023-11-22T15:39:38;5.70;14.90
516;DHT22;244;48.508;9.052;2023-11-22T15:42:05;5.70;15.00
516;DHT22;244;48.508;9.052;2023-11-22T15:44:33;5.70;15.10
516;DHT22;244;48.508;9.052;2023-11-22T15:47:00;5.80;15.10
516;DHT22;244;48.508;9.052;2023-11-22T15:49:30;5.80;15.10
516;DHT22;244;48.508;9.052;2023-11-22T15:51:57;5.80;14.90
516;DHT22;244;48.508;9.052;2023-11-22T15:54:24;5.80;14.90
516;DHT22;244;48.508;9.052;2023-11-22T15:56:52;5.80;14.80
516;DHT22;244;48.508;9.052;2023-11-22T15:59:19;5.80;14.80
516;DHT22;244;48.508;9.052;2023-11-22T16:01:46;5.80;14.60
516;DHT22;244;48.508;9.052;2023-11-22T16:04:12;5.80;14.60
516;DHT22;244;48.508;9.052;2023-11-22T16:06:41;5.70;14.50
516;DHT22;244;48.508;9.052;2023-11-22T16:09:08;5.70;14.30
516;DHT22;244;48.508;9.052;2023-11-22T16:11:36;5.70;14.50
516;DHT22;244;48.508;9.052;2023-11-22T16:14:04;5.70;14.60
516;DHT22;244;48.508;9.052;2023-11-22T16:16:31;5.70;14.50
516;DHT22;244;48.508;9.052;2023-11-22T16:18:58;5.70;14.50
516;DHT22;244;48.508;9.052;2023-11-22T16:21:25;5.60;15.10
516;DHT22;244;48.508;9.052;2023-11-22T16:23:52;5.60;14.40
516;DHT22;244;48.508;9.052;2023-11-22T16:26:18;5.60;14.40
516;DHT22;244;48.508;9.052;2023-11-22T16:28:45;5.60;14.40
516;DHT22;244;48.508;9.052;2023-11-22T16:31:15;5.60;14.40
516;DHT22;244;48.508;9.052;2023-11-22T16:33:44;5.60;14.40
516;DHT22;244;48.508;9.052;2023-11-22T16:36:11;5.60;14.20
516;DHT22;244;48.508;9.052;2023-11-22T16:38:38;5.60;14.30
516;DHT22;244;48.508;9.052;2023-11-22T16:41:06;5.60;14.40
516;DHT22;244;48.508;9.052;2023-11-22T16:43:33;5.60;14.10
516;DHT22;244;48.508;9.052;2023-11-22T16:46:00;5.50;14.10
516;DHT22;244;48.508;9.052;2023-11-22T16:48:28;5.50;14.10
516;DHT22;244;48.508;9.052;2023-11-22T16:50:55;5.50;14.10
516;DHT22;244;48.508;9.052;2023-11-22T16:53:22;5.50;14.10